Noonday, Texas
Current Conditions -  °F | °C
As of 6:53 PM on Tuesday 25 Nov 2014 (Local Time) from KTYR Reporting Station
Clear Clear  
Wind Chill: 53°   Ceiling: Unl
Heat Index: 53°   Visibility: 10mi
Dew Point: 28°   Wind: 0mph
Humidity: 38%   Direction: NA
Pressure: 30.18"   Gusts: NA
Location:  32.2242°N, 95.404°W
Report Text: KTYR 260053Z 00000KT 10SM CLR 12/M02 A3018 RMK AO2 SLP219 T01171022
Loading
Personal Weather Stations






























Interactive Weather Map New forecast layout! Learn more

10-Day Weather Forecast

Advertisements
Track Severe Weather on mobile